sensor_id;sensor_type;location;lat;lon;timestamp;P1;durP1;ratioP1;P2;durP2;ratioP2
2998;SDS011;1509;51.964;7.628;2023-04-01T00:00:54;10.90;;;2.27;;
2998;SDS011;1509;51.964;7.628;2023-04-01T00:03:21;6.07;;;2.63;;
2998;SDS011;1509;51.964;7.628;2023-04-01T00:05:48;4.17;;;2.40;;
2998;SDS011;1509;51.964;7.628;2023-04-01T00:08:14;6.00;;;2.90;;
2998;SDS011;1509;51.964;7.628;2023-04-01T00:10:40;5.40;;;2.60;;
2998;SDS011;1509;51.964;7.628;2023-04-01T00:13:06;6.57;;;3.00;;
2998;SDS011;1509;51.964;7.628;2023-04-01T00:15:35;4.73;;;2.50;;
2998;SDS011;1509;51.964;7.628;2023-04-01T00:18:01;4.30;;;2.80;;
2998;SDS011;1509;51.964;7.628;2023-04-01T00:20:27;7.00;;;2.73;;
2998;SDS011;1509;51.964;7.628;2023-04-01T00:22:53;5.97;;;2.93;;
2998;SDS011;1509;51.964;7.628;2023-04-01T00:25:18;6.73;;;3.00;;
2998;SDS011;1509;51.964;7.628;2023-04-01T00:27:44;5.63;;;2.60;;
2998;SDS011;1509;51.964;7.628;2023-04-01T00:30:10;5.10;;;2.43;;
2998;SDS011;1509;51.964;7.628;2023-04-01T00:32:36;8.80;;;2.90;;
2998;SDS011;1509;51.964;7.628;2023-04-01T00:35:02;5.13;;;3.93;;
2998;SDS011;1509;51.964;7.628;2023-04-01T00:37:29;6.53;;;3.47;;
2998;SDS011;1509;51.964;7.628;2023-04-01T00:39:55;6.87;;;2.97;;
2998;SDS011;1509;51.964;7.628;2023-04-01T00:42:21;4.50;;;3.13;;
2998;SDS011;1509;51.964;7.628;2023-04-01T00:44:53;3.97;;;2.83;;
2998;SDS011;1509;51.964;7.628;2023-04-01T00:47:19;6.17;;;2.63;;
2998;SDS011;1509;51.964;7.628;2023-04-01T00:49:46;4.33;;;3.30;;
2998;SDS011;1509;51.964;7.628;2023-04-01T00:52:17;4.57;;;2.93;;
2998;SDS011;1509;51.964;7.628;2023-04-01T00:54:46;5.90;;;3.47;;
2998;SDS011;1509;51.964;7.628;2023-04-01T00:57:15;5.67;;;2.70;;
2998;SDS011;1509;51.964;7.628;2023-04-01T00:59:47;8.10;;;2.83;;
2998;SDS011;1509;51.964;7.628;2023-04-01T01:02:16;5.83;;;3.57;;
2998;SDS011;1509;51.964;7.628;2023-04-01T01:04:42;5.93;;;3.00;;
2998;SDS011;1509;51.964;7.628;2023-04-01T01:09:55;7.60;;;3.50;;
2998;SDS011;1509;51.964;7.628;2023-04-01T01:15:08;9.40;;;3.53;;
2998;SDS011;1509;51.964;7.628;2023-04-01T01:18:05;7.33;;;2.80;;
2998;SDS011;1509;51.964;7.628;2023-04-01T01:23:38;8.23;;;3.37;;
2998;SDS011;1509;51.964;7.628;2023-04-01T01:29:22;5.40;;;2.80;;
2998;SDS011;1509;51.964;7.628;2023-04-01T01:37:44;8.40;;;4.50;;
2998;SDS011;1509;51.964;7.628;2023-04-01T01:40:12;5.80;;;3.60;;
2998;SDS011;1509;51.964;7.628;2023-04-01T01:42:40;7.50;;;4.20;;
2998;SDS011;1509;51.964;7.628;2023-04-01T01:45:11;5.97;;;3.80;;
2998;SDS011;1509;51.964;7.628;2023-04-01T01:47:39;6.70;;;3.77;;
2998;SDS011;1509;51.964;7.628;2023-04-01T01:50:06;6.40;;;3.33;;
2998;SDS011;1509;51.964;7.628;2023-04-01T01:52:34;6.37;;;3.57;;
2998;SDS011;1509;51.964;7.628;2023-04-01T01:55:00;7.07;;;3.90;;
2998;SDS011;1509;51.964;7.628;2023-04-01T01:57:26;6.63;;;4.10;;
2998;SDS011;1509;51.964;7.628;2023-04-01T01:59:57;8.40;;;4.47;;
2998;SDS011;1509;51.964;7.628;2023-04-01T02:02:28;5.63;;;3.77;;
2998;SDS011;1509;51.964;7.628;2023-04-01T02:04:57;4.83;;;3.73;;
2998;SDS011;1509;51.964;7.628;2023-04-01T02:07:25;5.87;;;4.20;;
2998;SDS011;1509;51.964;7.628;2023-04-01T02:09:56;5.60;;;3.60;;
2998;SDS011;1509;51.964;7.628;2023-04-01T02:12:22;6.30;;;3.77;;
2998;SDS011;1509;51.964;7.628;2023-04-01T02:14:51;4.50;;;3.67;;
2998;SDS011;1509;51.964;7.628;2023-04-01T02:17:27;10.33;;;3.80;;
2998;SDS011;1509;51.964;7.628;2023-04-01T02:22:31;5.53;;;3.70;;
2998;SDS011;1509;51.964;7.628;2023-04-01T02:25:01;8.00;;;4.27;;
2998;SDS011;1509;51.964;7.628;2023-04-01T02:27:32;8.60;;;5.40;;
2998;SDS011;1509;51.964;7.628;2023-04-01T02:29:58;6.37;;;4.10;;
2998;SDS011;1509;51.964;7.628;2023-04-01T02:32:24;6.80;;;4.03;;
2998;SDS011;1509;51.964;7.628;2023-04-01T02:34:52;4.83;;;3.80;;
2998;SDS011;1509;51.964;7.628;2023-04-01T02:37:18;5.27;;;3.50;;
2998;SDS011;1509;51.964;7.628;2023-04-01T02:39:44;6.13;;;3.50;;
2998;SDS011;1509;51.964;7.628;2023-04-01T02:42:10;5.10;;;3.40;;
2998;SDS011;1509;51.964;7.628;2023-04-01T02:44:36;4.23;;;2.83;;
2998;SDS011;1509;51.964;7.628;2023-04-01T02:47:02;3.70;;;2.60;;
2998;SDS011;1509;51.964;7.628;2023-04-01T02:49:27;5.33;;;3.40;;
2998;SDS011;1509;51.964;7.628;2023-04-01T02:51:53;3.87;;;2.60;;
2998;SDS011;1509;51.964;7.628;2023-04-01T02:54:19;7.03;;;3.37;;
2998;SDS011;1509;51.964;7.628;2023-04-01T02:56:45;4.50;;;2.50;;
2998;SDS011;1509;51.964;7.628;2023-04-01T02:59:10;4.50;;;2.80;;
2998;SDS011;1509;51.964;7.628;2023-04-01T03:01:36;5.20;;;3.60;;
2998;SDS011;1509;51.964;7.628;2023-04-01T03:04:02;4.20;;;2.87;;
2998;SDS011;1509;51.964;7.628;2023-04-01T03:06:28;4.90;;;2.53;;
2998;SDS011;1509;51.964;7.628;2023-04-01T03:09:03;4.50;;;2.90;;
2998;SDS011;1509;51.964;7.628;2023-04-01T03:11:29;4.40;;;3.03;;
2998;SDS011;1509;51.964;7.628;2023-04-01T03:13:55;3.80;;;2.77;;
2998;SDS011;1509;51.964;7.628;2023-04-01T03:16:20;5.07;;;2.77;;
2998;SDS011;1509;51.964;7.628;2023-04-01T03:18:50;5.87;;;3.10;;
2998;SDS011;1509;51.964;7.628;2023-04-01T03:21:23;6.20;;;2.53;;
2998;SDS011;1509;51.964;7.628;2023-04-01T03:23:56;4.07;;;2.77;;
2998;SDS011;1509;51.964;7.628;2023-04-01T03:29:01;4.43;;;2.80;;
2998;SDS011;1509;51.964;7.628;2023-04-01T03:31:27;4.30;;;3.20;;
2998;SDS011;1509;51.964;7.628;2023-04-01T03:33:53;4.77;;;3.00;;
2998;SDS011;1509;51.964;7.628;2023-04-01T03:36:19;4.00;;;2.90;;
2998;SDS011;1509;51.964;7.628;2023-04-01T03:38:48;4.90;;;3.30;;
2998;SDS011;1509;51.964;7.628;2023-04-01T03:41:14;4.57;;;3.60;;
2998;SDS011;1509;51.964;7.628;2023-04-01T03:43:41;5.70;;;3.17;;
2998;SDS011;1509;51.964;7.628;2023-04-01T03:46:07;5.13;;;3.10;;
2998;SDS011;1509;51.964;7.628;2023-04-01T03:48:33;5.07;;;3.00;;
2998;SDS011;1509;51.964;7.628;2023-04-01T03:50:59;7.30;;;3.70;;
2998;SDS011;1509;51.964;7.628;2023-04-01T03:53:25;5.57;;;3.90;;
2998;SDS011;1509;51.964;7.628;2023-04-01T03:55:52;5.97;;;3.80;;
2998;SDS011;1509;51.964;7.628;2023-04-01T03:58:18;8.17;;;3.60;;
2998;SDS011;1509;51.964;7.628;2023-04-01T04:00:44;4.73;;;3.07;;
2998;SDS011;1509;51.964;7.628;2023-04-01T04:03:10;5.63;;;3.90;;
2998;SDS011;1509;51.964;7.628;2023-04-01T04:05:45;4.70;;;3.93;;
2998;SDS011;1509;51.964;7.628;2023-04-01T04:08:13;6.40;;;4.50;;
2998;SDS011;1509;51.964;7.628;2023-04-01T04:10:46;4.70;;;3.80;;
2998;SDS011;1509;51.964;7.628;2023-04-01T04:13:12;5.50;;;4.10;;
2998;SDS011;1509;51.964;7.628;2023-04-01T04:15:40;6.27;;;4.77;;
2998;SDS011;1509;51.964;7.628;2023-04-01T04:18:09;6.73;;;4.83;;
2998;SDS011;1509;51.964;7.628;2023-04-01T04:20:43;5.60;;;4.30;;
2998;SDS011;1509;51.964;7.628;2023-04-01T04:23:10;5.40;;;3.70;;
2998;SDS011;1509;51.964;7.628;2023-04-01T04:25:39;6.33;;;4.63;;
2998;SDS011;1509;51.964;7.628;2023-04-01T04:28:05;8.67;;;5.07;;
2998;SDS011;1509;51.964;7.628;2023-04-01T04:30:31;7.00;;;3.90;;
2998;SDS011;1509;51.964;7.628;2023-04-01T04:32:56;8.17;;;5.67;;
2998;SDS011;1509;51.964;7.628;2023-04-01T04:35:22;6.93;;;4.80;;
2998;SDS011;1509;51.964;7.628;2023-04-01T04:37:48;7.37;;;5.63;;
2998;SDS011;1509;51.964;7.628;2023-04-01T04:40:13;7.27;;;4.23;;
2998;SDS011;1509;51.964;7.628;2023-04-01T04:42:39;7.57;;;5.37;;
2998;SDS011;1509;51.964;7.628;2023-04-01T04:45:05;7.20;;;5.17;;
2998;SDS011;1509;51.964;7.628;2023-04-01T04:47:31;5.20;;;3.90;;
2998;SDS011;1509;51.964;7.628;2023-04-01T04:49:57;5.80;;;4.10;;
2998;SDS011;1509;51.964;7.628;2023-04-01T04:52:22;6.77;;;4.43;;
2998;SDS011;1509;51.964;7.628;2023-04-01T04:54:48;5.20;;;4.07;;
2998;SDS011;1509;51.964;7.628;2023-04-01T04:57:14;8.60;;;4.60;;
2998;SDS011;1509;51.964;7.628;2023-04-01T04:59:39;6.00;;;3.80;;
2998;SDS011;1509;51.964;7.628;2023-04-01T05:02:05;7.20;;;4.40;;
2998;SDS011;1509;51.964;7.628;2023-04-01T05:04:34;6.90;;;3.80;;
2998;SDS011;1509;51.964;7.628;2023-04-01T05:07:01;6.17;;;4.07;;
2998;SDS011;1509;51.964;7.628;2023-04-01T05:09:26;5.70;;;3.97;;
2998;SDS011;1509;51.964;7.628;2023-04-01T05:11:52;6.93;;;4.10;;
2998;SDS011;1509;51.964;7.628;2023-04-01T05:14:18;6.53;;;3.80;;
2998;SDS011;1509;51.964;7.628;2023-04-01T05:16:43;5.20;;;3.70;;
2998;SDS011;1509;51.964;7.628;2023-04-01T05:19:11;9.60;;;5.20;;
2998;SDS011;1509;51.964;7.628;2023-04-01T05:21:46;5.40;;;3.10;;
2998;SDS011;1509;51.964;7.628;2023-04-01T05:24:12;5.87;;;3.90;;
2998;SDS011;1509;51.964;7.628;2023-04-01T05:26:38;5.53;;;3.73;;
2998;SDS011;1509;51.964;7.628;2023-04-01T05:29:09;5.70;;;4.20;;
2998;SDS011;1509;51.964;7.628;2023-04-01T05:31:38;6.23;;;4.00;;
2998;SDS011;1509;51.964;7.628;2023-04-01T05:34:04;7.93;;;4.43;;
2998;SDS011;1509;51.964;7.628;2023-04-01T05:36:30;7.80;;;4.50;;
2998;SDS011;1509;51.964;7.628;2023-04-01T05:38:56;6.60;;;4.10;;
2998;SDS011;1509;51.964;7.628;2023-04-01T05:41:36;6.40;;;4.30;;
2998;SDS011;1509;51.964;7.628;2023-04-01T05:44:06;5.80;;;4.17;;
2998;SDS011;1509;51.964;7.628;2023-04-01T05:46:31;6.90;;;4.70;;
2998;SDS011;1509;51.964;7.628;2023-04-01T05:49:02;6.63;;;4.57;;
2998;SDS011;1509;51.964;7.628;2023-04-01T05:51:28;7.93;;;5.40;;
2998;SDS011;1509;51.964;7.628;2023-04-01T05:54:01;7.93;;;4.60;;
2998;SDS011;1509;51.964;7.628;2023-04-01T05:56:26;9.10;;;5.33;;
2998;SDS011;1509;51.964;7.628;2023-04-01T05:58:53;8.70;;;6.00;;
2998;SDS011;1509;51.964;7.628;2023-04-01T06:01:26;8.83;;;5.90;;
2998;SDS011;1509;51.964;7.628;2023-04-01T06:03:52;8.60;;;5.90;;
2998;SDS011;1509;51.964;7.628;2023-04-01T06:06:27;9.53;;;6.03;;
2998;SDS011;1509;51.964;7.628;2023-04-01T06:08:55;8.50;;;5.67;;
2998;SDS011;1509;51.964;7.628;2023-04-01T06:11:37;10.27;;;6.57;;
2998;SDS011;1509;51.964;7.628;2023-04-01T06:14:16;10.77;;;7.23;;
2998;SDS011;1509;51.964;7.628;2023-04-01T06:25:24;12.87;;;8.20;;
2998;SDS011;1509;51.964;7.628;2023-04-01T06:31:03;12.17;;;8.50;;
2998;SDS011;1509;51.964;7.628;2023-04-01T06:42:23;13.23;;;8.87;;
2998;SDS011;1509;51.964;7.628;2023-04-01T06:45:13;16.37;;;9.40;;
2998;SDS011;1509;51.964;7.628;2023-04-01T06:59:05;14.43;;;8.60;;
2998;SDS011;1509;51.964;7.628;2023-04-01T07:01:18;15.90;;;7.63;;
2998;SDS011;1509;51.964;7.628;2023-04-01T07:04:02;19.40;;;9.40;;
2998;SDS011;1509;51.964;7.628;2023-04-01T07:06:39;12.97;;;8.60;;
2998;SDS011;1509;51.964;7.628;2023-04-01T07:09:08;14.30;;;8.77;;
2998;SDS011;1509;51.964;7.628;2023-04-01T07:12:02;11.00;;;7.83;;
2998;SDS011;1509;51.964;7.628;2023-04-01T07:14:39;11.70;;;8.20;;
2998;SDS011;1509;51.964;7.628;2023-04-01T07:20:11;11.67;;;7.33;;
2998;SDS011;1509;51.964;7.628;2023-04-01T07:22:52;9.80;;;6.53;;
2998;SDS011;1509;51.964;7.628;2023-04-01T07:25:24;11.83;;;8.47;;
2998;SDS011;1509;51.964;7.628;2023-04-01T07:28:05;11.63;;;7.37;;
2998;SDS011;1509;51.964;7.628;2023-04-01T07:39:01;8.03;;;6.10;;
2998;SDS011;1509;51.964;7.628;2023-04-01T07:47:47;10.20;;;6.70;;
2998;SDS011;1509;51.964;7.628;2023-04-01T07:50:46;10.67;;;6.60;;
2998;SDS011;1509;51.964;7.628;2023-04-01T07:59:17;9.63;;;7.00;;
2998;SDS011;1509;51.964;7.628;2023-04-01T08:02:11;10.50;;;6.80;;
2998;SDS011;1509;51.964;7.628;2023-04-01T08:16:12;9.77;;;6.50;;
2998;SDS011;1509;51.964;7.628;2023-04-01T08:18:54;9.70;;;6.80;;
2998;SDS011;1509;51.964;7.628;2023-04-01T08:21:35;9.73;;;6.70;;
2998;SDS011;1509;51.964;7.628;2023-04-01T08:24:27;8.10;;;6.50;;
2998;SDS011;1509;51.964;7.628;2023-04-01T08:27:03;10.23;;;6.50;;
2998;SDS011;1509;51.964;7.628;2023-04-01T08:29:46;8.50;;;6.20;;
2998;SDS011;1509;51.964;7.628;2023-04-01T08:32:37;8.83;;;6.23;;
2998;SDS011;1509;51.964;7.628;2023-04-01T08:37:53;9.83;;;6.87;;
2998;SDS011;1509;51.964;7.628;2023-04-01T08:46:17;8.10;;;6.07;;
2998;SDS011;1509;51.964;7.628;2023-04-01T08:49:17;8.10;;;6.83;;
2998;SDS011;1509;51.964;7.628;2023-04-01T08:57:19;8.90;;;6.50;;
2998;SDS011;1509;51.964;7.628;2023-04-01T08:59:50;7.13;;;6.13;;
2998;SDS011;1509;51.964;7.628;2023-04-01T09:21:30;8.70;;;6.50;;
2998;SDS011;1509;51.964;7.628;2023-04-01T09:24:23;6.93;;;6.03;;
2998;SDS011;1509;51.964;7.628;2023-04-01T09:27:10;8.73;;;6.50;;
2998;SDS011;1509;51.964;7.628;2023-04-01T09:30:14;11.10;;;6.93;;
2998;SDS011;1509;51.964;7.628;2023-04-01T09:41:29;8.57;;;7.07;;
2998;SDS011;1509;51.964;7.628;2023-04-01T09:47:16;9.53;;;7.17;;
2998;SDS011;1509;51.964;7.628;2023-04-01T10:01:43;8.87;;;6.00;;
2998;SDS011;1509;51.964;7.628;2023-04-01T10:07:43;10.33;;;6.50;;
2998;SDS011;1509;51.964;7.628;2023-04-01T10:10:46;9.53;;;6.47;;
2998;SDS011;1509;51.964;7.628;2023-04-01T10:16:37;8.57;;;7.33;;
2998;SDS011;1509;51.964;7.628;2023-04-01T10:27:50;7.53;;;5.03;;
2998;SDS011;1509;51.964;7.628;2023-04-01T10:36:47;10.47;;;6.30;;
2998;SDS011;1509;51.964;7.628;2023-04-01T10:39:49;9.57;;;7.80;;
2998;SDS011;1509;51.964;7.628;2023-04-01T10:51:25;9.90;;;6.63;;
2998;SDS011;1509;51.964;7.628;2023-04-01T10:56:39;8.33;;;5.77;;
2998;SDS011;1509;51.964;7.628;2023-04-01T11:08:03;8.33;;;5.70;;
2998;SDS011;1509;51.964;7.628;2023-04-01T11:34:07;7.07;;;5.40;;
2998;SDS011;1509;51.964;7.628;2023-04-01T11:37:09;6.13;;;4.90;;
2998;SDS011;1509;51.964;7.628;2023-04-01T11:48:23;5.37;;;4.20;;
2998;SDS011;1509;51.964;7.628;2023-04-01T11:51:10;4.10;;;3.70;;
2998;SDS011;1509;51.964;7.628;2023-04-01T12:02:25;6.03;;;4.17;;
2998;SDS011;1509;51.964;7.628;2023-04-01T12:05:19;5.73;;;4.70;;
2998;SDS011;1509;51.964;7.628;2023-04-01T12:10:44;5.13;;;3.43;;
2998;SDS011;1509;51.964;7.628;2023-04-01T12:24:31;4.23;;;3.00;;
2998;SDS011;1509;51.964;7.628;2023-04-01T12:44:13;2.90;;;2.20;;
2998;SDS011;1509;51.964;7.628;2023-04-01T12:49:38;5.30;;;2.97;;
2998;SDS011;1509;51.964;7.628;2023-04-01T12:52:20;5.03;;;3.80;;
2998;SDS011;1509;51.964;7.628;2023-04-01T12:55:00;3.50;;;2.67;;
2998;SDS011;1509;51.964;7.628;2023-04-01T12:57:50;4.60;;;3.57;;
2998;SDS011;1509;51.964;7.628;2023-04-01T13:00:27;3.50;;;2.40;;
2998;SDS011;1509;51.964;7.628;2023-04-01T13:09:06;3.60;;;2.47;;
2998;SDS011;1509;51.964;7.628;2023-04-01T13:14:32;4.27;;;2.83;;
2998;SDS011;1509;51.964;7.628;2023-04-01T13:17:19;4.53;;;3.10;;
2998;SDS011;1509;51.964;7.628;2023-04-01T13:23:07;5.60;;;4.40;;
2998;SDS011;1509;51.964;7.628;2023-04-01T13:25:51;7.13;;;5.30;;
2998;SDS011;1509;51.964;7.628;2023-04-01T13:28:42;10.97;;;6.50;;
2998;SDS011;1509;51.964;7.628;2023-04-01T13:31:43;10.90;;;7.00;;
2998;SDS011;1509;51.964;7.628;2023-04-01T13:40:33;6.67;;;4.20;;
2998;SDS011;1509;51.964;7.628;2023-04-01T13:43:35;8.90;;;4.80;;
2998;SDS011;1509;51.964;7.628;2023-04-01T13:49:07;7.97;;;5.30;;
2998;SDS011;1509;51.964;7.628;2023-04-01T13:52:14;9.37;;;6.00;;
2998;SDS011;1509;51.964;7.628;2023-04-01T14:26:34;9.00;;;5.13;;
2998;SDS011;1509;51.964;7.628;2023-04-01T14:32:32;8.83;;;6.17;;
2998;SDS011;1509;51.964;7.628;2023-04-01T14:37:58;9.20;;;5.60;;
2998;SDS011;1509;51.964;7.628;2023-04-01T14:43:46;9.67;;;6.50;;
2998;SDS011;1509;51.964;7.628;2023-04-01T14:46:13;12.93;;;8.30;;
2998;SDS011;1509;51.964;7.628;2023-04-01T14:51:09;11.40;;;7.47;;
2998;SDS011;1509;51.964;7.628;2023-04-01T14:54:14;12.80;;;8.17;;
2998;SDS011;1509;51.964;7.628;2023-04-01T14:56:49;11.00;;;6.80;;
2998;SDS011;1509;51.964;7.628;2023-04-01T14:59:26;10.53;;;6.97;;
2998;SDS011;1509;51.964;7.628;2023-04-01T15:01:58;8.13;;;6.27;;
2998;SDS011;1509;51.964;7.628;2023-04-01T15:13:10;6.33;;;5.30;;
2998;SDS011;1509;51.964;7.628;2023-04-01T15:18:19;7.57;;;4.50;;
2998;SDS011;1509;51.964;7.628;2023-04-01T15:21:13;6.63;;;4.53;;
2998;SDS011;1509;51.964;7.628;2023-04-01T15:32:31;6.20;;;4.27;;
2998;SDS011;1509;51.964;7.628;2023-04-01T15:35:28;7.23;;;5.37;;
2998;SDS011;1509;51.964;7.628;2023-04-01T15:38:27;6.70;;;4.43;;
2998;SDS011;1509;51.964;7.628;2023-04-01T15:41:22;7.07;;;4.80;;
2998;SDS011;1509;51.964;7.628;2023-04-01T15:44:06;8.23;;;5.33;;
2998;SDS011;1509;51.964;7.628;2023-04-01T15:49:59;7.23;;;5.27;;
2998;SDS011;1509;51.964;7.628;2023-04-01T15:52:56;10.00;;;7.30;;
2998;SDS011;1509;51.964;7.628;2023-04-01T15:58:44;8.60;;;6.17;;
2998;SDS011;1509;51.964;7.628;2023-04-01T16:01:33;7.60;;;5.17;;
2998;SDS011;1509;51.964;7.628;2023-04-01T16:04:31;6.87;;;4.90;;
2998;SDS011;1509;51.964;7.628;2023-04-01T16:07:24;7.00;;;4.73;;
2998;SDS011;1509;51.964;7.628;2023-04-01T16:13:12;5.40;;;3.90;;
2998;SDS011;1509;51.964;7.628;2023-04-01T16:22:00;5.83;;;4.00;;
2998;SDS011;1509;51.964;7.628;2023-04-01T16:30:34;7.40;;;4.87;;
2998;SDS011;1509;51.964;7.628;2023-04-01T16:36:00;5.60;;;3.97;;
2998;SDS011;1509;51.964;7.628;2023-04-01T16:41:35;3.80;;;3.10;;
2998;SDS011;1509;51.964;7.628;2023-04-01T16:44:23;4.37;;;3.00;;
2998;SDS011;1509;51.964;7.628;2023-04-01T16:46:53;3.90;;;2.83;;
2998;SDS011;1509;51.964;7.628;2023-04-01T16:49:31;3.50;;;3.17;;
2998;SDS011;1509;51.964;7.628;2023-04-01T16:58:26;2.63;;;2.30;;
2998;SDS011;1509;51.964;7.628;2023-04-01T17:01:05;3.47;;;2.50;;
2998;SDS011;1509;51.964;7.628;2023-04-01T17:03:57;3.07;;;2.70;;
2998;SDS011;1509;51.964;7.628;2023-04-01T17:17:58;2.23;;;1.60;;
2998;SDS011;1509;51.964;7.628;2023-04-01T17:23:23;2.67;;;2.23;;
2998;SDS011;1509;51.964;7.628;2023-04-01T17:26:48;2.53;;;2.10;;
2998;SDS011;1509;51.964;7.628;2023-04-01T17:29:24;3.80;;;2.27;;
2998;SDS011;1509;51.964;7.628;2023-04-01T17:32:05;2.00;;;1.40;;
2998;SDS011;1509;51.964;7.628;2023-04-01T17:37:05;2.63;;;1.30;;
2998;SDS011;1509;51.964;7.628;2023-04-01T17:44:52;2.20;;;1.30;;
2998;SDS011;1509;51.964;7.628;2023-04-01T17:47:39;2.30;;;1.47;;
2998;SDS011;1509;51.964;7.628;2023-04-01T17:53:31;3.10;;;2.00;;
2998;SDS011;1509;51.964;7.628;2023-04-01T17:59:31;2.17;;;1.50;;
2998;SDS011;1509;51.964;7.628;2023-04-01T18:05:24;3.67;;;2.10;;
2998;SDS011;1509;51.964;7.628;2023-04-01T18:08:06;4.50;;;2.27;;
2998;SDS011;1509;51.964;7.628;2023-04-01T18:10:57;3.53;;;2.37;;
2998;SDS011;1509;51.964;7.628;2023-04-01T18:16:43;3.50;;;2.77;;
2998;SDS011;1509;51.964;7.628;2023-04-01T18:53:10;3.90;;;2.43;;
2998;SDS011;1509;51.964;7.628;2023-04-01T18:56:02;2.03;;;1.50;;
2998;SDS011;1509;51.964;7.628;2023-04-01T18:58:35;6.17;;;3.70;;
2998;SDS011;1509;51.964;7.628;2023-04-01T19:01:34;2.23;;;1.70;;
2998;SDS011;1509;51.964;7.628;2023-04-01T19:04:31;2.40;;;1.70;;
2998;SDS011;1509;51.964;7.628;2023-04-01T19:07:34;2.20;;;1.40;;
2998;SDS011;1509;51.964;7.628;2023-04-01T19:27:19;3.60;;;2.33;;
2998;SDS011;1509;51.964;7.628;2023-04-01T19:30:02;5.10;;;3.43;;
2998;SDS011;1509;51.964;7.628;2023-04-01T19:32:41;8.00;;;5.83;;
2998;SDS011;1509;51.964;7.628;2023-04-01T19:37:50;3.80;;;1.83;;
2998;SDS011;1509;51.964;7.628;2023-04-01T19:40:37;3.43;;;2.30;;
2998;SDS011;1509;51.964;7.628;2023-04-01T19:43:16;2.73;;;2.00;;
2998;SDS011;1509;51.964;7.628;2023-04-01T19:45:55;3.17;;;2.40;;
2998;SDS011;1509;51.964;7.628;2023-04-01T19:51:17;3.03;;;2.00;;
2998;SDS011;1509;51.964;7.628;2023-04-01T19:53:59;3.60;;;2.23;;
2998;SDS011;1509;51.964;7.628;2023-04-01T20:08:05;3.23;;;2.50;;
2998;SDS011;1509;51.964;7.628;2023-04-01T20:19:25;6.47;;;5.13;;
2998;SDS011;1509;51.964;7.628;2023-04-01T20:22:02;4.27;;;3.33;;
2998;SDS011;1509;51.964;7.628;2023-04-01T20:24:37;5.77;;;3.70;;
2998;SDS011;1509;51.964;7.628;2023-04-01T20:27:18;4.00;;;2.83;;
2998;SDS011;1509;51.964;7.628;2023-04-01T20:50:55;10.77;;;5.90;;
2998;SDS011;1509;51.964;7.628;2023-04-01T21:09:31;3.50;;;2.37;;
2998;SDS011;1509;51.964;7.628;2023-04-01T21:23:18;6.97;;;5.10;;
2998;SDS011;1509;51.964;7.628;2023-04-01T21:26:20;9.70;;;6.73;;
2998;SDS011;1509;51.964;7.628;2023-04-01T21:34:40;5.13;;;2.90;;
2998;SDS011;1509;51.964;7.628;2023-04-01T21:40:02;3.57;;;2.60;;
2998;SDS011;1509;51.964;7.628;2023-04-01T21:51:02;3.20;;;2.23;;
2998;SDS011;1509;51.964;7.628;2023-04-01T22:02:08;2.93;;;2.10;;
2998;SDS011;1509;51.964;7.628;2023-04-01T22:04:56;3.00;;;2.00;;
2998;SDS011;1509;51.964;7.628;2023-04-01T22:10:38;2.90;;;2.60;;
2998;SDS011;1509;51.964;7.628;2023-04-01T22:26:35;5.80;;;3.70;;
2998;SDS011;1509;51.964;7.628;2023-04-01T22:29:17;3.57;;;2.37;;
2998;SDS011;1509;51.964;7.628;2023-04-01T22:31:59;4.10;;;3.40;;
2998;SDS011;1509;51.964;7.628;2023-04-01T22:42:42;5.40;;;4.27;;
2998;SDS011;1509;51.964;7.628;2023-04-01T22:50:19;2.30;;;1.80;;
2998;SDS011;1509;51.964;7.628;2023-04-01T22:52:56;3.33;;;2.50;;
2998;SDS011;1509;51.964;7.628;2023-04-01T22:55:29;3.90;;;3.07;;
2998;SDS011;1509;51.964;7.628;2023-04-01T22:58:04;4.07;;;2.67;;
2998;SDS011;1509;51.964;7.628;2023-04-01T23:00:40;3.10;;;1.90;;
2998;SDS011;1509;51.964;7.628;2023-04-01T23:03:15;3.70;;;1.87;;
2998;SDS011;1509;51.964;7.628;2023-04-01T23:05:49;2.40;;;1.67;;
2998;SDS011;1509;51.964;7.628;2023-04-01T23:11:04;6.57;;;3.43;;
2998;SDS011;1509;51.964;7.628;2023-04-01T23:16:43;6.33;;;4.00;;
2998;SDS011;1509;51.964;7.628;2023-04-01T23:19:45;3.80;;;2.40;;
2998;SDS011;1509;51.964;7.628;2023-04-01T23:22:16;3.23;;;2.60;;
2998;SDS011;1509;51.964;7.628;2023-04-01T23:24:55;4.53;;;2.80;;
2998;SDS011;1509;51.964;7.628;2023-04-01T23:27:38;3.27;;;2.10;;
2998;SDS011;1509;51.964;7.628;2023-04-01T23:33:22;3.07;;;2.50;;
2998;SDS011;1509;51.964;7.628;2023-04-01T23:38:34;2.97;;;2.30;;
2998;SDS011;1509;51.964;7.628;2023-04-01T23:41:05;4.00;;;3.00;;
2998;SDS011;1509;51.964;7.628;2023-04-01T23:43:36;4.30;;;2.83;;
2998;SDS011;1509;51.964;7.628;2023-04-01T23:46:06;4.07;;;2.70;;
2998;SDS011;1509;51.964;7.628;2023-04-01T23:48:36;6.67;;;3.43;;
2998;SDS011;1509;51.964;7.628;2023-04-01T23:51:08;3.20;;;2.60;;
2998;SDS011;1509;51.964;7.628;2023-04-01T23:54:13;4.07;;;2.47;;
2998;SDS011;1509;51.964;7.628;2023-04-01T23:56:50;3.00;;;2.43;;
2998;SDS011;1509;51.964;7.628;2023-04-01T23:59:18;6.33;;;4.80;;
